Aviation Digital Data Service (ADDS)

Output produced by TAFs form (0214 UTC 21 April 2018)
found at http://aviationweather.gov/adds/tafs/
 
METAR text: RJSN 210200Z 19013KT CAVOK 25/06 Q1018
Conditions at: RJSN (NIIGATA (CIV/JAS, JP) observed 0200 UTC 21 April 2018
Temperature: 25.0°C (77°F)
Dewpoint: 6.0°C (43°F) [RH = 30%]
Pressure (altimeter): 30.06 inches Hg (1018.0 mb)
Winds: from the S (190 degrees) at 15 MPH (13 knots; 6.8 m/s)
Visibility: 6 or more miles (10+ km)
Ceiling: ceiling and visibility are OK
Clouds: unknown
Weather: no significant weather observed at this time

Forecast for: RJSN (NIIGATA (CIV/JAS, JP)
Text: TAF RJSN 202305Z 2100/2206 25010KT 9999 FEW030
Forecast period: 0000 to 1000 UTC 21 April 2018
Forecast type: FROM: standard forecast or significant change
Winds: from the WSW (250 degrees) at 12 MPH (10 knots; 5.2 m/s)
Visibility: 6 or more miles (10+ km)
Clouds: few clouds at 3000 feet AGL
Weather: no significant weather forecast for this period
Forecast for: RJSN (NIIGATA (CIV/JAS, JP)
Text: TAF RJSN 202305Z 2100/2206 25010KT 9999 FEW030
Forecast period: 0000 to 1000 UTC 21 April 2018
Forecast type: FROM: standard forecast or significant change
Winds: from the WSW (250 degrees) at 12 MPH (10 knots; 5.2 m/s)
Visibility: 6 or more miles (10+ km)
Clouds: few clouds at 3000 feet AGL
Weather: no significant weather forecast for this period
Forecast for: RJSN (NIIGATA (CIV/JAS, JP)
Text: TAF RJSN 202305Z 2100/2206 25010KT 9999 FEW030
Forecast period: 1000 to 2100 UTC 21 April 2018
Forecast type: BECOMING: Conditions expected to become as follows by 1200 UTC 21 April 2018
Winds: from the S (180 degrees) at 6 MPH (5 knots; 2.6 m/s)
Visibility: 6 or more miles (10+ km)
Clouds: few clouds at 3000 feet AGL
Weather: no significant weather forecast for this period
Forecast for: RJSN (NIIGATA (CIV/JAS, JP)
Text: TAF RJSN 202305Z 2100/2206 25010KT 9999 FEW030
Forecast period: 1000 to 2100 UTC 21 April 2018
Forecast type: BECOMING: Conditions expected to become as follows by 1200 UTC 21 April 2018
Winds: from the S (180 degrees) at 6 MPH (5 knots; 2.6 m/s)
Visibility: 6 or more miles (10+ km)
Clouds: few clouds at 3000 feet AGL
Weather: no significant weather forecast for this period
Forecast for: RJSN (NIIGATA (CIV/JAS, JP)
Text: TAF RJSN 202305Z 2100/2206 25010KT 9999 FEW030
Forecast period: 2100 UTC 21 April 2018 to 0600 UTC 22 April 2018
Forecast type: BECOMING: Conditions expected to become as follows by 0000 UTC 22 April 2018
Winds: from the SW (220 degrees) at 12 MPH (10 knots; 5.2 m/s)
Visibility: 6 or more miles (10+ km)
Clouds: few clouds at 3000 feet AGL
Weather: no significant weather forecast for this period
Forecast for: RJSN (NIIGATA (CIV/JAS, JP)
Text: TAF RJSN 202305Z 2100/2206 25010KT 9999 FEW030
Forecast period: 2100 UTC 21 April 2018 to 0600 UTC 22 April 2018
Forecast type: BECOMING: Conditions expected to become as follows by 0000 UTC 22 April 2018
Winds: from the SW (220 degrees) at 12 MPH (10 knots; 5.2 m/s)
Visibility: 6 or more miles (10+ km)
Clouds: few clouds at 3000 feet AGL
Weather: no significant weather forecast for this period